Time;durP1;ratioP1;P1;durP2;ratioP2;P2;SDS_P1;SDS_P2;PMS_P1;PMS_P2;Temp;Humidity;BMP_temperature;BMP_pressure;BME280_temperature;BME280_humidity;BME280_pressure;Samples;Min_cycle;Max_cycle;Signal;HPM_P1;HPM_P2
2023/05/20 00:00:56;;;;;;;3.53;1.70;;;;;;;11.81;nan;100252.91;7342142;19;20022;-62
2023/05/20 00:03:20;;;;;;;4.35;2.10;;;;;;;11.82;nan;100255.50;7342725;19;20039;-64
2023/05/20 00:05:45;;;;;;;3.67;1.88;;;;;;;11.81;nan;100248.44;7344273;19;20519;-63
2023/05/20 00:08:10;;;;;;;4.60;1.77;;;;;;;11.81;nan;100243.09;7344029;19;20522;-65
2023/05/20 00:10:48;;;;;;;2.72;2.00;;;;;;;11.86;nan;100250.78;7347471;19;20461;-71
2023/05/20 00:13:13;;;;;;;2.67;1.58;;;;;;;11.79;nan;100242.34;7342767;19;20046;-68
2023/05/20 00:15:39;;;;;;;1.33;1.23;;;;;;;11.82;nan;100243.94;7346636;19;20045;-68
2023/05/20 00:18:03;;;;;;;10.63;2.33;;;;;;;11.81;nan;100235.06;7345840;19;20022;-67
2023/05/20 00:20:28;;;;;;;2.88;1.50;;;;;;;11.83;nan;100241.19;7342655;19;20015;-68
2023/05/20 00:22:54;;;;;;;20.05;2.15;;;;;;;11.83;nan;100248.34;7340379;19;20024;-70
2023/05/20 00:25:22;;;;;;;4.63;1.83;;;;;;;11.82;nan;100239.47;7341808;19;20334;-71
2023/05/20 00:27:47;;;;;;;2.30;1.73;;;;;;;11.81;nan;100243.09;7342128;19;20006;-74
2023/05/20 00:30:12;;;;;;;2.17;1.40;;;;;;;11.77;nan;100244.25;7340077;19;20469;-68
2023/05/20 00:32:40;;;;;;;3.42;1.92;;;;;;;11.78;nan;100251.31;7344030;19;20010;-72
2023/05/20 00:35:10;;;;;;;3.22;1.77;;;;;;;11.73;nan;100242.72;7344603;19;20372;-63
2023/05/20 00:37:35;;;;;;;5.65;2.05;;;;;;;11.74;nan;100240.91;7338697;19;20098;-62
2023/05/20 00:40:02;;;;;;;3.65;1.88;;;;;;;11.73;nan;100242.72;7338902;19;20018;-65
2023/05/20 00:42:30;;;;;;;1.85;1.42;;;;;;;11.74;nan;100238.25;7340366;19;20022;-66
2023/05/20 00:47:37;;;;;;;6.70;1.75;;;;;;;11.77;nan;100254.94;7336285;19;20035;-63
2023/05/20 00:50:09;;;;;;;7.70;1.95;;;;;;;11.81;nan;100251.09;7342094;19;20021;-63
2023/05/20 00:52:36;;;;;;;3.78;1.75;;;;;;;11.83;nan;100243.00;7341233;19;20050;-62
2023/05/20 00:55:01;;;;;;;6.75;1.73;;;;;;;11.85;nan;100243.75;7343225;19;20026;-63
2023/05/20 00:57:26;;;;;;;1.95;1.60;;;;;;;11.87;nan;100256.03;7343520;19;20015;-64
2023/05/20 00:59:55;;;;;;;5.22;1.98;;;;;;;11.92;nan;100247.72;7339422;19;20015;-64
2023/05/20 01:02:20;;;;;;;3.60;1.92;;;;;;;11.91;nan;100246.00;7341998;19;20477;-63
2023/05/20 01:04:46;;;;;;;4.60;2.00;;;;;;;11.93;nan;100247.63;7338737;19;20097;-64
2023/05/20 01:07:14;;;;;;;6.68;1.35;;;;;;;11.92;nan;100248.56;7340072;19;20110;-72
2023/05/20 01:09:43;;;;;;;2.67;1.70;;;;;;;11.96;nan;100247.38;7340052;19;20019;-63
2023/05/20 01:12:42;;;;;;;4.00;1.73;;;;;;;12.03;nan;100244.31;7339153;19;20018;-63
2023/05/20 01:15:13;;;;;;;4.18;2.17;;;;;;;11.97;nan;100245.56;7338308;19;20019;-62
2023/05/20 01:17:40;;;;;;;2.17;1.48;;;;;;;11.91;nan;100235.31;7338425;19;20025;-64
2023/05/20 01:20:09;;;;;;;5.95;2.70;;;;;;;11.92;nan;100245.03;7340407;19;20345;-63
2023/05/20 01:22:36;;;;;;;3.17;1.58;;;;;;;11.87;nan;100245.34;7341670;19;20041;-63
2023/05/20 01:25:03;;;;;;;2.08;1.88;;;;;;;11.90;nan;100249.63;7338226;19;20006;-63
2023/05/20 01:27:29;;;;;;;4.97;1.90;;;;;;;11.86;nan;100246.28;7341630;19;20015;-61
2023/05/20 01:29:54;;;;;;;2.65;1.63;;;;;;;11.87;nan;100242.66;7334027;19;20106;-62
2023/05/20 01:32:37;;;;;;;2.05;1.55;;;;;;;11.95;nan;100247.50;7340361;19;20027;-62
2023/05/20 01:35:04;;;;;;;2.42;1.80;;;;;;;11.89;nan;100245.25;7341521;19;20484;-61
2023/05/20 01:37:33;;;;;;;5.97;1.95;;;;;;;11.90;nan;100246.97;7340658;19;20044;-63
2023/05/20 01:40:06;;;;;;;2.13;1.52;;;;;;;11.92;nan;100245.91;7340197;19;20025;-62
2023/05/20 01:42:33;;;;;;;6.20;1.67;;;;;;;11.89;nan;100253.25;7341965;19;20023;-63
2023/05/20 01:45:06;;;;;;;1.85;1.75;;;;;;;11.89;nan;100259.47;7340027;19;20030;-62
2023/05/20 01:47:31;;;;;;;3.83;1.42;;;;;;;11.87;nan;100255.16;7342053;19;20078;-63
2023/05/20 01:49:57;;;;;;;2.05;1.55;;;;;;;11.89;nan;100261.28;7341263;19;20346;-63
2023/05/20 01:52:25;;;;;;;2.30;1.77;;;;;;;11.87;nan;100272.06;7339983;19;20476;-63
2023/05/20 01:54:50;;;;;;;4.57;2.30;;;;;;;11.87;nan;100258.69;7338243;19;20470;-63
2023/05/20 01:59:50;;;;;;;3.60;2.00;;;;;;;11.88;nan;100256.88;7340810;19;20029;-72
2023/05/20 02:02:16;;;;;;;10.45;2.03;;;;;;;11.88;nan;100256.88;7344443;19;20014;-67
2023/05/20 02:04:48;;;;;;;2.75;2.10;;;;;;;11.87;nan;100256.03;7347878;19;20184;-70
2023/05/20 02:07:18;;;;;;;3.70;2.05;;;;;;;11.84;nan;100253.59;7347683;19;20014;-66
2023/05/20 02:09:44;;;;;;;2.95;1.20;;;;;;;11.84;nan;100261.59;7346963;19;20007;-65
2023/05/20 02:12:19;;;;;;;3.28;1.75;;;;;;;11.82;nan;100255.50;7351241;19;20106;-64
2023/05/20 02:14:45;;;;;;;8.30;2.53;;;;;;;11.81;nan;100271.63;7347013;19;20488;-64
2023/05/20 02:17:10;;;;;;;2.53;1.65;;;;;;;11.79;nan;100265.50;7349132;19;20007;-61
2023/05/20 02:19:36;;;;;;;7.15;2.35;;;;;;;11.78;nan;100262.00;7347404;19;20025;-62
2023/05/20 02:22:01;;;;;;;2.78;1.38;;;;;;;11.81;nan;100260.94;7345818;19;20019;-61
2023/05/20 02:24:28;;;;;;;2.72;1.52;;;;;;;11.85;nan;100262.47;7346237;19;20007;-62
2023/05/20 02:26:54;;;;;;;3.15;2.10;;;;;;;11.81;nan;100267.13;7348375;19;20345;-62
2023/05/20 02:29:21;;;;;;;2.63;1.20;;;;;;;11.82;nan;100263.50;7343583;19;20014;-61
2023/05/20 02:31:49;;;;;;;5.60;1.92;;;;;;;11.81;nan;100259.13;7343717;19;20010;-63
2023/05/20 02:34:17;;;;;;;4.15;1.55;;;;;;;11.85;nan;100259.78;7344505;19;20619;-62
2023/05/20 02:36:43;;;;;;;8.35;2.60;;;;;;;11.83;nan;100257.22;7346629;19;20011;-62
2023/05/20 02:39:11;;;;;;;5.03;1.65;;;;;;;11.84;nan;100250.91;7345380;19;20640;-65
2023/05/20 02:41:36;;;;;;;5.10;2.05;;;;;;;11.83;nan;100259.03;7342698;19;20018;-63
2023/05/20 02:44:05;;;;;;;1.55;1.33;;;;;;;11.82;nan;100252.81;7345197;19;20023;-65
2023/05/20 02:46:31;;;;;;;3.88;1.48;;;;;;;11.83;nan;100259.03;7346729;19;20022;-62
2023/05/20 02:49:00;;;;;;;3.60;1.50;;;;;;;11.82;nan;100260.84;7347270;19;20126;-62
2023/05/20 02:51:25;;;;;;;5.90;1.92;;;;;;;11.82;nan;100262.66;7346604;19;20043;-62
2023/05/20 02:53:50;;;;;;;3.13;1.88;;;;;;;11.85;nan;100265.13;7346150;19;20019;-64
2023/05/20 02:56:15;;;;;;;5.32;1.58;;;;;;;11.85;nan;100263.28;7347449;19;20029;-63
2023/05/20 02:58:40;;;;;;;4.60;1.70;;;;;;;11.85;nan;100263.28;7345178;19;20415;-64
2023/05/20 03:01:07;;;;;;;3.67;1.63;;;;;;;11.93;nan;100265.47;7344594;19;20453;-62
2023/05/20 03:03:33;;;;;;;8.20;1.75;;;;;;;12.00;nan;100266.75;7349220;19;20090;-66
2023/05/20 03:05:59;;;;;;;1.95;1.48;;;;;;;12.03;nan;100257.69;7343318;19;20006;-65
2023/05/20 03:08:25;;;;;;;3.03;1.77;;;;;;;12.11;nan;100269.56;7340421;19;20461;-66
2023/05/20 03:10:55;;;;;;;3.20;1.85;;;;;;;12.20;nan;100273.41;7345367;19;20013;-66
2023/05/20 03:13:20;;;;;;;1.48;1.33;;;;;;;12.24;nan;100265.09;7342276;19;20022;-66
2023/05/20 03:15:47;;;;;;;2.95;1.65;;;;;;;12.30;nan;100266.50;7342187;19;20025;-66
2023/05/20 03:18:12;;;;;;;2.53;1.67;;;;;;;12.35;nan;100267.03;7342378;19;20026;-67
2023/05/20 03:20:37;;;;;;;4.85;2.28;;;;;;;12.42;nan;100267.44;7343365;19;20015;-65
2023/05/20 03:23:05;;;;;;;2.25;1.88;;;;;;;12.44;nan;100265.53;7339864;19;20015;-67
2023/05/20 03:25:34;;;;;;;3.22;1.63;;;;;;;12.51;nan;100262.34;7346476;19;20014;-68
2023/05/20 03:27:59;;;;;;;1.58;1.42;;;;;;;12.49;nan;100272.28;7343619;19;20018;-66
2023/05/20 03:30:28;;;;;;;4.25;1.50;;;;;;;12.56;nan;100270.03;7342188;19;20034;-63
2023/05/20 03:32:56;;;;;;;2.53;1.80;;;;;;;12.54;nan;100277.28;7341697;19;20360;-67
2023/05/20 03:35:22;;;;;;;4.88;1.30;;;;;;;12.57;nan;100277.94;7344957;19;20015;-70
2023/05/20 03:37:47;;;;;;;5.55;1.70;;;;;;;12.59;nan;100275.16;7344277;19;20018;-66
2023/05/20 03:40:12;;;;;;;3.67;1.77;;;;;;;12.57;nan;100266.38;7345438;19;20006;-69
2023/05/20 03:42:42;;;;;;;4.55;2.20;;;;;;;12.58;nan;100276.13;7343727;19;20022;-70
2023/05/20 03:45:07;;;;;;;2.70;1.58;;;;;;;12.55;nan;100270.97;7341220;19;20069;-63
2023/05/20 03:47:41;;;;;;;2.65;2.15;;;;;;;12.57;nan;100261.03;7341559;19;20018;-64
2023/05/20 03:50:11;;;;;;;3.65;1.85;;;;;;;12.56;nan;100265.53;7342272;19;20025;-69
2023/05/20 03:52:37;;;;;;;4.75;2.00;;;;;;;12.53;nan;100263.06;7347249;19;20022;-70
2023/05/20 03:55:03;;;;;;;4.13;1.80;;;;;;;12.49;nan;100268.75;7350596;19;20093;-69
2023/05/20 03:57:29;;;;;;;4.88;1.85;;;;;;;12.45;nan;100265.44;7350018;19;20018;-69
2023/05/20 03:59:53;;;;;;;4.07;1.85;;;;;;;12.38;nan;100261.47;7344895;19;20010;-69
2023/05/20 04:02:18;;;;;;;2.90;1.83;;;;;;;12.36;nan;100263.41;7339815;19;20070;-70
2023/05/20 04:04:51;;;;;;;7.18;1.55;;;;;;;12.41;nan;100269.28;7342501;19;20018;-71
2023/05/20 04:07:18;;;;;;;3.55;1.88;;;;;;;12.43;nan;100259.31;7343412;19;20018;-70
2023/05/20 04:09:46;;;;;;;3.33;1.42;;;;;;;12.50;nan;100259.78;7341312;19;20620;-63
2023/05/20 04:12:13;;;;;;;4.57;2.17;;;;;;;12.53;nan;100259.53;7343578;19;20029;-64
2023/05/20 04:14:41;;;;;;;3.05;1.73;;;;;;;12.56;nan;100262.00;7342056;19;20078;-64
2023/05/20 04:17:13;;;;;;;4.75;1.90;;;;;;;12.63;nan;100261.47;7342379;19;20070;-64
2023/05/20 04:19:40;;;;;;;2.15;1.98;;;;;;;12.71;nan;100269.81;7341248;19;20011;-65
2023/05/20 04:22:05;;;;;;;3.55;1.50;;;;;;;12.83;nan;100265.44;7338033;19;20050;-64
2023/05/20 04:24:31;;;;;;;1.75;1.65;;;;;;;12.96;nan;100257.38;7340801;19;20484;-64
2023/05/20 04:26:55;;;;;;;6.53;2.58;;;;;;;13.12;nan;100263.31;7340537;19;20492;-63
2023/05/20 04:29:21;;;;;;;2.70;1.75;;;;;;;13.21;nan;100273.41;7340765;19;20014;-63
2023/05/20 04:31:49;;;;;;;4.72;1.88;;;;;;;13.27;nan;100266.75;7340025;19;20018;-64
2023/05/20 04:34:27;;;;;;;2.72;1.23;;;;;;;13.25;nan;100266.88;7345005;19;20089;-64
2023/05/20 04:39:32;;;;;;;5.43;2.17;;;;;;;13.33;nan;100269.84;7339727;19;20026;-63
2023/05/20 04:41:58;;;;;;;4.22;1.45;;;;;;;13.42;nan;100263.84;7338986;19;20022;-64
2023/05/20 04:44:28;;;;;;;4.15;1.63;;;;;;;13.48;nan;100269.69;7340024;19;20019;-65
2023/05/20 04:46:56;;;;;;;2.88;1.33;;;;;;;13.52;nan;100269.38;7338932;19;20351;-65
2023/05/20 04:49:21;;;;;;;1.50;1.40;;;;;;;13.52;nan;100265.81;7339799;19;20037;-63
2023/05/20 04:51:48;;;;;;;1.63;1.45;;;;;;;13.54;nan;100263.91;7339715;19;20019;-64
2023/05/20 04:54:13;;;;;;;2.58;1.58;;;;;;;13.64;nan;100271.13;7344377;19;20022;-64
2023/05/20 04:56:39;;;;;;;3.83;2.13;;;;;;;13.75;nan;100267.66;7343039;19;20031;-64
2023/05/20 04:59:05;;;;;;;3.72;1.95;;;;;;;13.85;nan;100266.00;7348580;19;20015;-65
2023/05/20 05:01:33;;;;;;;4.80;1.95;;;;;;;14.02;nan;100267.38;7342452;19;20018;-65
2023/05/20 05:04:04;;;;;;;;;;;;;;;14.34;nan;100270.28;7345493;19;20447;-65
2023/05/20 05:06:29;;;;;;;;;;;;;;;14.47;nan;100269.25;7343942;19;19915;-66
2023/05/20 05:08:56;;;;;;;2.50;1.90;;;;;;;14.36;nan;100269.19;7343429;19;20015;-65
2023/05/20 05:11:23;;;;;;;2.47;2.10;;;;;;;14.44;nan;100264.16;7347484;19;20015;-66
2023/05/20 05:16:24;;;;;;;4.80;1.48;;;;;;;14.67;nan;100259.66;7347908;19;20024;-65
2023/05/20 05:18:49;;;;;;;14.93;2.78;;;;;;;14.72;nan;100260.16;7342338;19;20015;-65
2023/05/20 05:21:17;;;;;;;5.85;2.75;;;;;;;14.78;nan;100245.41;7340009;19;20006;-65
2023/05/20 05:23:45;;;;;;;6.60;2.33;;;;;;;14.94;nan;100253.06;7342287;19;20094;-65
2023/05/20 05:26:10;;;;;;;4.53;2.08;;;;;;;15.12;nan;100251.63;7339401;19;20028;-65
2023/05/20 05:28:37;;;;;;;2.97;2.10;;;;;;;15.35;nan;100249.75;7342242;19;20045;-65
2023/05/20 05:31:06;;;;;;;9.50;3.67;;;;;;;15.63;nan;100251.03;7338271;19;20018;-65
2023/05/20 05:33:30;;;;;;;3.08;1.77;;;;;;;15.90;nan;100243.38;7341722;19;20018;-65
2023/05/20 05:35:57;;;;;;;2.90;1.85;;;;;;;16.17;nan;100245.56;7345883;19;20014;-65
2023/05/20 05:38:26;;;;;;;5.32;2.25;;;;;;;16.60;nan;100238.19;7345358;19;20037;-66
2023/05/20 05:40:55;;;;;;;2.60;1.70;;;;;;;16.99;nan;100238.41;7346770;19;20051;-65
2023/05/20 05:43:28;;;;;;;6.05;2.17;;;;;;;17.58;nan;100241.13;7345261;19;20048;-66
2023/05/20 05:45:55;;;;;;;5.53;2.35;;;;;;;17.89;nan;100239.19;7345553;19;20029;-66
2023/05/20 05:48:22;;;;;;;3.38;1.95;;;;;;;18.35;nan;100240.28;7346853;19;20014;-66
2023/05/20 05:50:48;;;;;;;3.38;2.17;;;;;;;18.87;nan;100241.59;7345106;19;20448;-66
2023/05/20 05:53:16;;;;;;;3.42;2.10;;;;;;;19.34;nan;100236.09;7345394;19;20032;-65
2023/05/20 05:55:48;;;;;;;3.42;2.50;;;;;;;19.56;nan;100233.00;7346951;19;20019;-64
2023/05/20 05:58:21;;;;;;;7.25;2.22;;;;;;;19.66;nan;100232.94;7348394;19;20476;-65
2023/05/20 06:00:53;;;;;;;6.10;2.50;;;;;;;19.81;nan;100218.72;7345363;19;20021;-66
2023/05/20 06:03:21;;;;;;;2.95;2.08;;;;;;;20.09;nan;100229.47;7342777;19;20393;-66
2023/05/20 06:05:46;;;;;;;4.78;2.50;;;;;;;20.65;nan;100232.59;7346190;19;20006;-64
2023/05/20 06:08:11;;;;;;;7.63;2.22;;;;;;;21.01;nan;100229.75;7349045;19;20018;-66
2023/05/20 06:10:39;;;;;;;3.45;2.30;;;;;;;21.57;nan;100240.00;7345278;19;20078;-66
2023/05/20 06:15:42;;;;;;;6.80;2.53;;;;;;;22.28;nan;100239.44;7345862;19;20022;-65
2023/05/20 06:18:08;;;;;;;4.63;2.25;;;;;;;22.32;nan;100238.09;7345966;19;20342;-64
2023/05/20 06:20:32;;;;;;;5.43;2.05;;;;;;;22.51;nan;100245.03;7345914;19;20450;-66
2023/05/20 06:22:58;;;;;;;6.68;2.45;;;;;;;22.37;nan;100238.41;7342323;19;20018;-65
2023/05/20 06:25:30;;;;;;;3.80;2.30;;;;;;;22.33;nan;100239.78;7344530;19;20342;-65
2023/05/20 06:27:56;;;;;;;6.53;2.10;;;;;;;22.43;nan;100245.88;7343946;19;20018;-66
2023/05/20 06:30:22;;;;;;;5.35;2.17;;;;;;;22.82;nan;100256.03;7347827;19;20018;-64
2023/05/20 06:32:46;;;;;;;5.20;2.10;;;;;;;23.23;nan;100229.56;7343612;19;20438;-66
2023/05/20 06:35:14;;;;;;;3.47;1.98;;;;;;;23.63;nan;100238.56;7343489;19;20105;-66
2023/05/20 06:37:42;;;;;;;4.85;1.92;;;;;;;24.44;nan;100241.56;7345104;19;20026;-65
2023/05/20 06:40:09;;;;;;;3.38;2.05;;;;;;;25.17;nan;100237.25;7343164;19;20022;-65
2023/05/20 06:42:41;;;;;;;2.38;2.13;;;;;;;26.46;nan;100239.97;7342171;19;20018;-65
2023/05/20 06:45:07;;;;;;;2.70;2.00;;;;;;;27.80;nan;100228.53;7342261;19;20013;-66
2023/05/20 06:47:36;;;;;;;4.03;2.50;;;;;;;28.98;nan;100231.56;7342760;19;20099;-66
2023/05/20 06:50:01;;;;;;;6.57;3.00;;;;;;;29.23;nan;100230.63;7346526;19;20018;-65
2023/05/20 06:52:29;;;;;;;3.65;2.60;;;;;;;29.74;nan;100231.72;7344199;19;20022;-66
2023/05/20 06:54:54;;;;;;;6.15;2.35;;;;;;;30.50;nan;100226.97;7345820;19;20017;-66
2023/05/20 06:57:22;;;;;;;2.53;2.33;;;;;;;31.33;nan;100234.84;7347142;19;20023;-63
2023/05/20 06:59:47;;;;;;;8.15;3.00;;;;;;;31.45;nan;100227.50;7342676;19;20146;-64
2023/05/20 07:02:21;;;;;;;6.78;2.80;;;;;;;31.10;nan;100229.19;7342638;19;20022;-67
2023/05/20 07:04:48;;;;;;;4.18;2.35;;;;;;;31.52;nan;100222.72;7343551;19;20025;-65
2023/05/20 07:07:14;;;;;;;7.15;2.88;;;;;;;31.22;nan;100230.94;7342533;19;20358;-65
2023/05/20 07:09:42;;;;;;;4.50;2.70;;;;;;;30.55;nan;100231.81;7343281;19;20469;-65
2023/05/20 07:12:07;;;;;;;4.78;2.65;;;;;;;30.53;nan;100232.06;7343930;19;20386;-67
2023/05/20 07:14:33;;;;;;;14.18;2.78;;;;;;;30.44;nan;100233.38;7344054;19;20149;-64
2023/05/20 07:16:59;;;;;;;6.13;2.47;;;;;;;29.62;nan;100226.06;7345768;19;20086;-65
2023/05/20 07:19:27;;;;;;;3.47;2.47;;;;;;;28.93;nan;100228.59;7347035;19;20018;-65
2023/05/20 07:21:57;;;;;;;6.32;2.80;;;;;;;28.74;nan;100227.56;7347730;19;20018;-66
2023/05/20 07:24:46;;;;;;;3.97;1.98;;;;;;;28.38;nan;100230.75;7342775;19;20018;-63
2023/05/20 07:27:12;;;;;;;3.05;2.65;;;;;;;27.51;nan;100219.78;7341729;19;20098;-65
2023/05/20 07:29:37;;;;;;;2.60;2.38;;;;;;;27.45;nan;100225.00;7343294;19;20018;-64
2023/05/20 07:32:04;;;;;;;5.55;2.97;;;;;;;27.05;nan;100218.53;7342796;19;20014;-64
2023/05/20 07:34:37;;;;;;;6.40;3.33;;;;;;;26.13;nan;100231.44;7346671;19;20039;-64
2023/05/20 07:37:08;;;;;;;4.43;2.10;;;;;;;25.25;nan;100228.94;7342662;19;20350;-64
2023/05/20 07:39:35;;;;;;;3.15;2.55;;;;;;;25.45;nan;100230.03;7346828;19;20026;-63
2023/05/20 07:41:59;;;;;;;6.97;3.15;;;;;;;27.17;nan;100212.47;7343080;19;20030;-65
2023/05/20 07:44:26;;;;;;;5.13;4.25;;;;;;;28.86;nan;100218.50;7351720;19;20029;-63
2023/05/20 07:46:53;;;;;;;12.07;3.20;;;;;;;29.90;nan;100204.56;7341356;19;20019;-63
2023/05/20 07:49:19;;;;;;;8.30;2.90;;;;;;;29.70;nan;100209.31;7343605;19;20034;-64
2023/05/20 07:51:47;;;;;;;5.03;2.85;;;;;;;29.09;nan;100206.19;7342782;19;20076;-64
2023/05/20 07:54:15;;;;;;;3.63;2.60;;;;;;;28.11;nan;100214.25;7343661;19;20111;-64
2023/05/20 07:56:45;;;;;;;8.48;2.58;;;;;;;27.35;nan;100207.28;7342580;19;20018;-64
2023/05/20 07:59:10;;;;;;;3.25;2.92;;;;;;;26.67;nan;100212.56;7346003;19;20401;-64
2023/05/20 08:01:42;;;;;;;10.25;3.50;;;;;;;26.34;nan;100209.56;7340473;19;20434;-63
2023/05/20 08:04:10;;;;;;;7.55;3.53;;;;;;;28.14;nan;100211.09;7341060;19;20018;-63
2023/05/20 08:06:43;;;;;;;7.28;2.90;;;;;;;29.84;nan;100193.59;7341398;19;20350;-64
2023/05/20 08:09:15;;;;;;;6.18;3.05;;;;;;;31.31;nan;100201.16;7341785;19;20014;-64
2023/05/20 08:14:17;;;;;;;3.30;2.95;;;;;;;29.62;nan;100201.34;7341515;19;20082;-64
2023/05/20 08:16:45;;;;;;;11.00;2.97;;;;;;;28.18;nan;100197.84;7340833;19;20092;-63
2023/05/20 08:19:11;;;;;;;6.45;3.40;;;;;;;26.78;nan;100200.22;7341226;19;20039;-64
2023/05/20 08:21:44;;;;;;;5.97;3.42;;;;;;;25.72;nan;100212.13;7341202;19;20351;-63
2023/05/20 08:24:15;;;;;;;9.93;3.20;;;;;;;26.08;nan;100208.47;7342418;19;20018;-64
2023/05/20 08:26:45;;;;;;;5.28;2.67;;;;;;;26.44;nan;100202.91;7340805;19;20107;-63
2023/05/20 08:29:13;;;;;;;10.40;3.70;;;;;;;26.91;nan;100200.31;7342599;19;20021;-64
2023/05/20 08:31:38;;;;;;;6.90;3.10;;;;;;;27.09;nan;100195.16;7341688;19;20077;-64
2023/05/20 08:34:04;;;;;;;8.55;3.05;;;;;;;26.94;nan;100194.47;7340042;19;20035;-63
2023/05/20 08:36:40;;;;;;;7.95;3.40;;;;;;;27.17;nan;100193.31;7343404;19;20029;-63
2023/05/20 08:39:13;;;;;;;8.20;3.08;;;;;;;27.27;nan;100193.78;7342582;19;20014;-64
2023/05/20 08:41:38;;;;;;;5.25;3.13;;;;;;;27.45;nan;100199.53;7342332;19;20495;-64
2023/05/20 08:44:04;;;;;;;5.43;2.97;;;;;;;27.00;nan;100204.59;7339114;19;20022;-65
2023/05/20 08:46:33;;;;;;;11.38;3.00;;;;;;;26.28;nan;100204.06;7340459;19;20014;-64
2023/05/20 08:48:58;;;;;;;6.43;3.17;;;;;;;25.55;nan;100197.81;7342355;19;20464;-64
2023/05/20 08:51:26;;;;;;;8.23;3.45;;;;;;;24.93;nan;100195.59;7346254;19;20349;-64
2023/05/20 08:53:59;;;;;;;5.55;2.90;;;;;;;24.19;nan;100210.91;7339249;19;20035;-65
2023/05/20 08:56:31;;;;;;;3.35;2.67;;;;;;;23.47;nan;100198.66;7339088;19;20018;-65
2023/05/20 08:58:56;;;;;;;9.50;2.60;;;;;;;23.06;nan;100196.13;7340355;19;20045;-66
2023/05/20 09:01:24;;;;;;;5.32;2.75;;;;;;;23.09;nan;100206.66;7340124;19;20393;-66
2023/05/20 09:04:01;;;;;;;15.40;3.13;;;;;;;23.26;nan;100203.84;7340536;19;20326;-66
2023/05/20 09:06:30;;;;;;;8.07;3.22;;;;;;;23.27;nan;100202.84;7340152;19;20387;-66
2023/05/20 09:08:59;;;;;;;8.05;3.38;;;;;;;22.99;nan;100194.31;7339021;19;20062;-65
2023/05/20 09:11:25;;;;;;;2.97;2.58;;;;;;;22.61;nan;100218.50;7340141;19;20045;-65
2023/05/20 09:16:27;;;;;;;4.55;2.90;;;;;;;21.76;nan;100205.44;7339783;19;20026;-65
2023/05/20 09:18:56;;;;;;;7.57;2.75;;;;;;;21.66;nan;100211.88;7341280;19;20014;-65
2023/05/20 09:21:28;;;;;;;8.10;3.33;;;;;;;21.52;nan;100211.69;7339349;19;20014;-65
2023/05/20 09:24:02;;;;;;;3.25;2.40;;;;;;;21.25;nan;100208.19;7337690;19;20025;-66
2023/05/20 09:26:28;;;;;;;9.73;2.90;;;;;;;21.02;nan;100201.63;7340223;19;20018;-66
2023/05/20 09:28:58;;;;;;;5.70;2.83;;;;;;;21.16;nan;100214.56;7339578;19;20385;-66
2023/05/20 09:31:43;;;;;;;3.97;3.08;;;;;;;21.37;nan;100212.31;7339765;19;20019;-66
2023/05/20 09:34:17;;;;;;;8.88;3.35;;;;;;;20.93;nan;100211.59;7341582;19;20017;-66
2023/05/20 09:36:46;;;;;;;7.85;3.53;;;;;;;20.56;nan;100214.59;7338124;19;20022;-66
2023/05/20 09:39:15;;;;;;;7.25;2.83;;;;;;;20.32;nan;100214.41;7339041;19;20019;-66
2023/05/20 09:41:53;;;;;;;2.83;2.38;;;;;;;20.17;nan;100218.69;7339125;19;20033;-66
2023/05/20 09:44:20;;;;;;;5.75;2.75;;;;;;;19.85;nan;100221.97;7339401;19;20026;-66
2023/05/20 09:46:48;;;;;;;5.95;2.47;;;;;;;19.64;nan;100230.38;7341349;19;20010;-66
2023/05/20 09:49:16;;;;;;;5.18;2.42;;;;;;;19.53;nan;100228.75;7339030;19;20022;-65
2023/05/20 09:51:45;;;;;;;5.03;3.03;;;;;;;19.43;nan;100227.06;7337685;19;20026;-66
2023/05/20 09:54:12;;;;;;;3.15;2.28;;;;;;;19.50;nan;100225.50;7338945;19;20350;-65
2023/05/20 09:56:43;;;;;;;4.57;2.92;;;;;;;19.67;nan;100219.25;7338186;19;20102;-64
2023/05/20 09:59:20;;;;;;;7.55;3.20;;;;;;;20.01;nan;100224.81;7344197;19;20026;-65
2023/05/20 10:01:46;;;;;;;;;;;;;;;20.43;nan;100221.47;7339961;19;20032;-65
2023/05/20 10:04:16;;;;;;;9.63;3.03;;;;;;;19.96;nan;100229.88;7337715;19;19933;-65
2023/05/20 10:07:01;;;;;;;5.38;3.17;;;;;;;19.68;nan;100236.34;7336964;19;20030;-64
2023/05/20 10:09:54;;;;;;;5.28;2.70;;;;;;;19.18;nan;100225.97;7339261;19;20049;-65
2023/05/20 10:15:27;;;;;;;4.63;2.80;;;;;;;18.30;nan;100234.44;7342091;19;20013;-65
2023/05/20 10:18:10;;;;;;;5.68;2.42;;;;;;;18.06;nan;100241.16;7336639;19;20306;-65
2023/05/20 10:20:50;;;;;;;3.83;2.95;;;;;;;17.93;nan;100242.47;7340388;19;20018;-67
2023/05/20 10:23:21;;;;;;;7.10;3.05;;;;;;;17.89;nan;100241.03;7345518;19;20036;-64
2023/05/20 10:25:55;;;;;;;3.63;2.50;;;;;;;17.93;nan;100237.91;7347934;19;20034;-63
2023/05/20 10:28:29;;;;;;;7.15;3.20;;;;;;;18.07;nan;100242.84;7346691;19;20345;-64
2023/05/20 10:31:02;;;;;;;6.53;2.78;;;;;;;18.08;nan;100238.31;7347645;19;20022;-65
2023/05/20 10:33:29;;;;;;;3.53;2.65;;;;;;;18.09;nan;100229.22;7349361;19;20025;-63
2023/05/20 10:35:59;;;;;;;5.85;2.97;;;;;;;18.16;nan;100241.16;7348545;19;20477;-64
2023/05/20 10:38:29;;;;;;;8.30;3.38;;;;;;;18.18;nan;100236.47;7357143;19;20029;-64
2023/05/20 10:40:56;;;;;;;8.25;2.50;;;;;;;18.32;nan;100236.03;7360076;19;20010;-64
2023/05/20 10:43:28;;;;;;;11.95;3.40;;;;;;;18.51;nan;100240.53;7347915;19;20015;-64
2023/05/20 10:45:57;;;;;;;12.20;2.90;;;;;;;18.56;nan;100237.41;7349588;19;20018;-64
2023/05/20 10:48:31;;;;;;;9.00;2.90;;;;;;;18.57;nan;100233.69;7349691;19;20027;-64
2023/05/20 10:51:03;;;;;;;8.25;3.15;;;;;;;18.62;nan;100235.00;7349361;19;20015;-64
2023/05/20 10:53:39;;;;;;;15.95;2.88;;;;;;;18.70;nan;100240.53;7350775;19;20014;-64
2023/05/20 10:56:25;;;;;;;6.22;2.60;;;;;;;18.76;nan;100239.06;7345378;19;20018;-64
2023/05/20 10:58:55;;;;;;;6.15;3.28;;;;;;;18.68;nan;100247.06;7343498;19;20022;-64
2023/05/20 11:01:26;;;;;;;5.05;2.70;;;;;;;18.59;nan;100235.28;7344168;19;20038;-65
2023/05/20 11:03:53;;;;;;;4.57;3.53;;;;;;;18.58;nan;100239.00;7342794;19;20100;-65
2023/05/20 11:06:27;;;;;;;;;;;;;;;18.96;nan;100229.88;7345215;19;20015;-64
2023/05/20 11:08:55;;;;;;;10.68;3.33;;;;;;;18.59;nan;100237.16;7344292;19;19983;-66
2023/05/20 11:11:21;;;;;;;6.35;2.63;;;;;;;18.55;nan;100246.50;7346667;19;20388;-66
2023/05/20 11:13:52;;;;;;;3.35;2.47;;;;;;;18.48;nan;100232.72;7344264;19;20025;-65
2023/05/20 11:16:20;;;;;;;7.45;2.80;;;;;;;18.40;nan;100227.19;7343785;19;20014;-66
2023/05/20 11:18:49;;;;;;;6.35;2.60;;;;;;;18.31;nan;100238.84;7343522;19;20342;-67
2023/05/20 11:21:13;;;;;;;8.55;3.53;;;;;;;18.25;nan;100229.50;7342292;19;20026;-68
2023/05/20 11:23:45;;;;;;;12.07;3.60;;;;;;;18.20;nan;100242.56;7343300;19;20027;-69
2023/05/20 11:26:11;;;;;;;6.03;3.15;;;;;;;18.13;nan;100236.06;7343061;19;20006;-71
2023/05/20 11:28:37;;;;;;;10.18;3.22;;;;;;;18.07;nan;100242.00;7343603;19;20022;-73
2023/05/20 11:31:02;;;;;;;4.70;3.38;;;;;;;18.00;nan;100240.88;7345090;19;20010;-67
2023/05/20 11:33:26;;;;;;;13.15;3.33;;;;;;;17.96;nan;100245.69;7343213;19;20467;-66
2023/05/20 11:35:53;;;;;;;7.53;3.00;;;;;;;17.88;nan;100248.25;7344721;19;20473;-69
2023/05/20 11:38:20;;;;;;;4.80;3.20;;;;;;;17.86;nan;100250.25;7345259;19;20014;-69
2023/05/20 11:43:25;;;;;;;5.55;2.97;;;;;;;17.77;nan;100235.78;7343433;19;20018;-69
2023/05/20 11:46:00;;;;;;;6.45;3.05;;;;;;;17.72;nan;100240.72;7344081;19;20085;-67
2023/05/20 11:48:25;;;;;;;7.80;3.65;;;;;;;17.66;nan;100241.28;7345212;19;20030;-67
2023/05/20 11:50:53;;;;;;;6.78;2.67;;;;;;;17.66;nan;100243.13;7344617;19;20086;-72
2023/05/20 11:53:20;;;;;;;8.07;3.10;;;;;;;17.59;nan;100241.97;7345423;19;20018;-65
2023/05/20 11:55:57;;;;;;;5.75;3.05;;;;;;;17.52;nan;100238.09;7344240;19;20014;-70
2023/05/20 11:58:25;;;;;;;5.38;3.30;;;;;;;17.38;nan;100240.22;7344497;19;20018;-69
2023/05/20 12:00:54;;;;;;;9.75;3.58;;;;;;;17.40;nan;100259.78;7343758;19;20010;-69
2023/05/20 12:03:19;;;;;;;7.22;4.05;;;;;;;17.35;nan;100250.44;7343488;19;20010;-68
2023/05/20 12:05:49;;;;;;;5.57;3.70;;;;;;;17.45;nan;100247.75;7344828;19;20069;-66
2023/05/20 12:08:19;;;;;;;5.60;2.97;;;;;;;17.39;nan;100249.16;7343470;19;20422;-68
2023/05/20 12:10:44;;;;;;;5.72;3.25;;;;;;;17.43;nan;100254.13;7347140;19;20018;-69